Weather at Upolu Airport

Public forecast

Using degrees Fahrenheit for public forecast. Weather courtesy of forecast.io.

Closest aviation weather report (METAR) to Upolu Airport

Closest report is Ellison Onizuka Kona International Airport at Keahole, 33.3 nm (61.7 km) SSW.

2024/06/21 00:53 (retrieved 16 minutes ago)

PHKO 210053Z 24010KT 10SM OVC045 29/21 A2996 RMK AO2 SLP146 T02890211

Closest aviation forecast (TAF) to Upolu Airport

Forecast is more than 6 hours old.

Closest forecast is Vandenberg Space Force Base, 2,055.6 nm (3,807.0 km) ENE.

2024/06/20 18:00 Correction (retrieved 7 hours ago)

TAF COR KVBG 201941Z 2018/2120 34014G20KT 9999 SCT006 510001 QNH2988INS BECMG 2020/2021 32015G25KT 9999 SKC 520001 QNH2982INS BECMG 2103/2104 33010G20KT 9999 SCT010 510001 QNH2982INS BECMG 2105/2106 32009KT 3000 BR OVC005 QNH2979INS BECMG 2110/2111 VRB06KT 2000 BR OVC001 QNH2979INS BECMG 2116/2117 VRB06KT 3000 BR BKN005 QNH2982INS BECMG 2118/2119 32010G15KT 9999 NSW FEW010 QNH2981INS TX18/2021Z TN10/2114Z LAST NO AMDS AFT 2019 NEXT 2114